createdAt,value
2023-01-20T00:01:21.381Z,21.37
2023-01-20T00:03:48.206Z,19.90
2023-01-20T00:06:14.866Z,21.57
2023-01-20T00:08:41.804Z,20.57
2023-01-20T00:11:10.956Z,24.83
2023-01-20T00:13:38.512Z,21.63
2023-01-20T00:16:07.340Z,22.43
2023-01-20T00:18:35.054Z,21.67
2023-01-20T00:21:06.450Z,22.50
2023-01-20T00:23:33.621Z,25.93
2023-01-20T00:26:07.206Z,22.53
2023-01-20T00:28:35.323Z,21.20
2023-01-20T00:31:18.372Z,26.47
2023-01-20T00:33:46.681Z,21.87
2023-01-20T00:36:15.233Z,20.50
2023-01-20T00:38:42.558Z,20.13
2023-01-20T00:41:10.000Z,17.20
2023-01-20T00:43:37.232Z,17.10
2023-01-20T00:46:05.141Z,19.17
2023-01-20T00:48:31.900Z,19.37
2023-01-20T00:50:58.800Z,20.00
2023-01-20T00:53:25.728Z,17.87
2023-01-20T00:55:52.307Z,18.23
2023-01-20T00:58:18.998Z,19.80
2023-01-20T01:00:50.611Z,17.70
2023-01-20T01:03:17.497Z,20.67
2023-01-20T01:05:45.374Z,18.77
2023-01-20T01:08:12.452Z,18.93
2023-01-20T01:10:40.270Z,17.87
2023-01-20T01:13:07.815Z,18.53
2023-01-20T01:15:34.675Z,20.03
2023-01-20T01:18:01.836Z,17.60
2023-01-20T01:20:29.176Z,18.67
2023-01-20T01:22:55.900Z,18.87
2023-01-20T01:25:22.745Z,21.07
2023-01-20T01:27:49.381Z,20.47
2023-01-20T01:30:16.034Z,20.37
2023-01-20T01:32:42.694Z,19.17
2023-01-20T01:35:09.466Z,22.30
2023-01-20T01:37:36.171Z,22.47
2023-01-20T01:40:03.143Z,20.60
2023-01-20T01:42:29.977Z,20.70
2023-01-20T01:45:12.363Z,16.87
2023-01-20T01:47:54.658Z,18.87
2023-01-20T01:50:30.927Z,20.70
2023-01-20T01:52:57.798Z,18.67
2023-01-20T01:55:29.299Z,17.50
2023-01-20T01:57:58.298Z,18.00
2023-01-20T02:00:25.044Z,18.53
2023-01-20T02:02:52.132Z,20.20
2023-01-20T02:05:19.900Z,20.23
2023-01-20T02:07:48.012Z,19.80
2023-01-20T02:10:15.321Z,21.13
2023-01-20T02:12:43.684Z,19.90
2023-01-20T02:15:10.731Z,22.37
2023-01-20T02:17:57.512Z,21.63
2023-01-20T02:20:29.909Z,17.97
2023-01-20T02:23:16.913Z,18.97
2023-01-20T02:25:46.250Z,22.00
2023-01-20T02:28:12.841Z,19.43
2023-01-20T02:30:54.828Z,20.07
2023-01-20T02:33:33.145Z,19.47
2023-01-20T02:36:08.631Z,19.67
2023-01-20T02:39:04.395Z,17.70
2023-01-20T02:41:33.964Z,18.63
2023-01-20T02:44:06.900Z,18.97
2023-01-20T02:46:39.292Z,20.10
2023-01-20T02:49:15.627Z,19.40
2023-01-20T02:51:49.450Z,19.13
2023-01-20T02:54:18.797Z,17.87
2023-01-20T02:56:48.178Z,20.77
2023-01-20T02:59:20.848Z,18.47
2023-01-20T03:01:56.043Z,17.47
2023-01-20T03:04:27.977Z,21.27
2023-01-20T03:06:57.509Z,18.80
2023-01-20T03:09:30.438Z,19.27
2023-01-20T03:12:03.971Z,18.67
2023-01-20T03:14:30.889Z,19.77
2023-01-20T03:16:57.513Z,22.57
2023-01-20T03:19:24.444Z,19.50
2023-01-20T03:21:51.057Z,22.07
2023-01-20T03:24:17.841Z,20.77
2023-01-20T03:26:44.626Z,19.43
2023-01-20T03:29:11.733Z,19.03
2023-01-20T03:31:52.197Z,18.77
2023-01-20T03:34:22.257Z,21.53
2023-01-20T03:36:49.974Z,23.40
2023-01-20T03:39:17.505Z,21.87
2023-01-20T03:42:11.841Z,19.50
2023-01-20T03:44:57.238Z,22.30
2023-01-20T03:47:41.181Z,19.73
2023-01-20T03:50:25.789Z,20.07
2023-01-20T03:53:07.400Z,19.53
2023-01-20T03:55:42.045Z,21.17
2023-01-20T03:58:12.694Z,21.13
2023-01-20T04:00:47.942Z,17.53
2023-01-20T04:03:30.268Z,22.47
2023-01-20T04:06:00.625Z,21.10
2023-01-20T04:08:33.248Z,23.40
2023-01-20T04:11:03.782Z,35.73
2023-01-20T04:13:30.458Z,27.83
2023-01-20T04:15:59.385Z,21.27
2023-01-20T04:18:26.231Z,22.23
2023-01-20T04:21:02.409Z,22.13
2023-01-20T04:23:44.078Z,22.20
2023-01-20T04:26:10.896Z,19.03
2023-01-20T04:28:37.498Z,19.47
2023-01-20T04:31:04.310Z,20.87
2023-01-20T04:33:31.000Z,21.07
2023-01-20T04:35:57.613Z,20.67
2023-01-20T04:38:24.241Z,20.83
2023-01-20T04:40:51.575Z,22.70
2023-01-20T04:43:18.465Z,21.10
2023-01-20T04:45:45.113Z,21.20
2023-01-20T04:48:11.786Z,22.10
2023-01-20T04:50:41.373Z,21.37
2023-01-20T04:53:13.753Z,22.57
2023-01-20T04:55:40.418Z,22.17
2023-01-20T04:58:07.012Z,20.83
2023-01-20T05:00:33.816Z,22.53
2023-01-20T05:03:00.649Z,23.70
2023-01-20T05:05:27.381Z,23.77
2023-01-20T05:07:54.995Z,22.87
2023-01-20T05:10:21.638Z,23.27
2023-01-20T05:12:48.244Z,23.27
2023-01-20T05:15:15.196Z,21.47
2023-01-20T05:17:42.019Z,24.67
2023-01-20T05:20:09.509Z,21.50
2023-01-20T05:22:36.167Z,23.30
2023-01-20T05:25:02.919Z,22.50
2023-01-20T05:27:29.620Z,24.57
2023-01-20T05:29:56.295Z,20.10
2023-01-20T05:32:22.952Z,24.20
2023-01-20T05:34:49.658Z,19.00
2023-01-20T05:37:19.153Z,21.97
2023-01-20T05:39:45.897Z,23.50
2023-01-20T05:42:12.697Z,22.83
2023-01-20T05:44:39.372Z,21.47
2023-01-20T05:47:06.073Z,22.57
2023-01-20T05:49:32.846Z,19.87
2023-01-20T05:51:59.489Z,22.23
2023-01-20T05:54:26.273Z,21.73
2023-01-20T05:56:52.945Z,24.53
2023-01-20T05:59:19.595Z,21.60
2023-01-20T06:01:46.424Z,22.03
2023-01-20T06:04:13.065Z,23.23
2023-01-20T06:06:39.711Z,22.60
2023-01-20T06:09:06.753Z,21.10
2023-01-20T06:11:33.494Z,19.70
2023-01-20T06:14:00.183Z,22.57
2023-01-20T06:16:26.910Z,21.20
2023-01-20T06:18:53.741Z,22.37
2023-01-20T06:21:20.457Z,20.27
2023-01-20T06:23:47.261Z,22.00
2023-01-20T06:26:14.709Z,21.00
2023-01-20T06:28:41.439Z,20.57
2023-01-20T06:31:17.349Z,22.63
2023-01-20T06:33:44.129Z,20.40
2023-01-20T06:36:17.446Z,21.23
2023-01-20T06:38:48.478Z,19.77
2023-01-20T06:41:15.427Z,19.73
2023-01-20T06:43:42.346Z,46.57
2023-01-20T06:46:14.500Z,36.87
2023-01-20T06:48:42.235Z,39.40
2023-01-20T06:51:18.226Z,35.63
2023-01-20T06:53:45.552Z,37.90
2023-01-20T06:56:13.741Z,33.03
2023-01-20T06:58:40.713Z,33.23
2023-01-20T07:01:15.984Z,34.50
2023-01-20T07:03:45.760Z,28.33
2023-01-20T07:06:15.126Z,32.13
2023-01-20T07:08:43.868Z,43.27
2023-01-20T07:11:10.777Z,44.23
2023-01-20T07:13:37.595Z,56.23
2023-01-20T07:16:04.743Z,57.50
2023-01-20T07:18:31.435Z,53.03
2023-01-20T07:20:58.099Z,42.83
2023-01-20T07:23:24.739Z,44.60
2023-01-20T07:26:09.174Z,47.17
2023-01-20T07:28:37.171Z,40.47
2023-01-20T07:31:09.698Z,39.57
2023-01-20T07:33:36.788Z,41.47
2023-01-20T07:36:04.962Z,40.37
2023-01-20T07:38:31.556Z,35.00
2023-01-20T07:41:06.063Z,42.70
2023-01-20T07:43:33.268Z,37.40
2023-01-20T07:46:02.125Z,39.97
2023-01-20T07:48:31.269Z,56.13
2023-01-20T07:51:05.259Z,51.23
2023-01-20T07:53:46.490Z,49.13
2023-01-20T07:56:21.211Z,47.97
2023-01-20T07:58:50.419Z,42.33
2023-01-20T08:01:20.575Z,42.70
2023-01-20T08:03:47.897Z,39.80
2023-01-20T08:06:17.518Z,38.23
2023-01-20T08:08:44.643Z,32.67
2023-01-20T08:11:13.739Z,50.93
2023-01-20T08:13:40.758Z,54.60
2023-01-20T08:16:09.607Z,41.37
2023-01-20T08:18:36.509Z,45.13
2023-01-20T08:21:06.545Z,43.03
2023-01-20T08:23:34.296Z,44.93
2023-01-20T08:26:04.667Z,49.80
2023-01-20T08:28:35.210Z,44.67
2023-01-20T08:31:12.215Z,34.43
2023-01-20T08:33:39.934Z,34.70
2023-01-20T08:36:17.522Z,37.87
2023-01-20T08:38:45.038Z,38.37
2023-01-20T08:41:18.483Z,41.13
2023-01-20T08:43:45.550Z,41.37
2023-01-20T08:46:14.999Z,41.17
2023-01-20T08:48:42.685Z,37.83
2023-01-20T08:51:16.731Z,25.00
2023-01-20T08:53:43.771Z,18.10
2023-01-20T08:56:11.283Z,18.77
2023-01-20T08:58:38.643Z,16.67
2023-01-20T09:01:14.335Z,14.77
2023-01-20T09:03:42.063Z,14.57
2023-01-20T09:06:12.676Z,17.17
2023-01-20T09:08:39.759Z,18.40
2023-01-20T09:11:11.766Z,19.17
2023-01-20T09:13:38.485Z,19.63
2023-01-20T09:16:05.552Z,20.30
2023-01-20T09:18:34.604Z,14.17
2023-01-20T09:21:02.726Z,18.13
2023-01-20T09:23:29.332Z,15.07
2023-01-20T09:25:59.642Z,16.77
2023-01-20T09:28:26.539Z,19.17
2023-01-20T09:31:04.774Z,14.03
2023-01-20T09:33:32.758Z,15.57
2023-01-20T09:36:00.141Z,16.10
2023-01-20T09:38:45.895Z,17.13
2023-01-20T09:41:44.031Z,17.67
2023-01-20T09:44:41.905Z,14.57
2023-01-20T09:47:22.533Z,14.23
2023-01-20T09:50:36.037Z,13.33
2023-01-20T09:53:22.861Z,15.00
2023-01-20T09:55:53.289Z,17.03
2023-01-20T09:58:32.071Z,16.40
2023-01-20T10:01:31.139Z,17.00
2023-01-20T10:04:14.421Z,14.77
2023-01-20T10:06:56.865Z,15.13
2023-01-20T10:09:35.683Z,12.13
2023-01-20T10:12:18.345Z,12.87
2023-01-20T10:14:50.757Z,15.23
2023-01-20T10:17:39.985Z,14.53
2023-01-20T10:20:22.928Z,13.43
2023-01-20T10:23:01.034Z,13.03
2023-01-20T10:25:36.462Z,13.27
2023-01-20T10:28:12.021Z,13.13
2023-01-20T10:30:39.012Z,16.30
2023-01-20T10:33:22.008Z,10.57
2023-01-20T10:35:53.365Z,8.87
2023-01-20T10:38:38.635Z,9.67
2023-01-20T10:41:31.983Z,10.60
2023-01-20T10:43:59.843Z,11.60
2023-01-20T10:46:46.186Z,9.70
2023-01-20T10:50:01.071Z,8.93
2023-01-20T10:52:55.613Z,10.23
2023-01-20T10:55:29.755Z,8.20
2023-01-20T10:58:08.945Z,7.77
2023-01-20T11:00:35.762Z,8.77
2023-01-20T11:03:06.130Z,15.10
2023-01-20T11:05:41.491Z,15.80
2023-01-20T11:08:19.265Z,13.00
2023-01-20T11:10:49.239Z,8.67
2023-01-20T11:13:17.279Z,9.10
2023-01-20T11:15:49.834Z,8.40
2023-01-20T11:18:16.530Z,14.63
2023-01-20T11:20:49.260Z,13.30
2023-01-20T11:23:23.797Z,12.50
2023-01-20T11:25:56.956Z,14.57
2023-01-20T11:28:24.968Z,9.43
2023-01-20T11:30:54.922Z,9.60
2023-01-20T11:33:26.282Z,7.60
2023-01-20T11:36:01.637Z,6.87
2023-01-20T11:38:31.246Z,6.53
2023-01-20T11:40:58.693Z,8.67
2023-01-20T11:43:30.615Z,6.43
2023-01-20T11:46:10.800Z,5.77
2023-01-20T11:48:37.605Z,6.47
2023-01-20T11:51:05.000Z,9.40
2023-01-20T11:53:33.522Z,6.10
2023-01-20T11:56:02.045Z,8.70
2023-01-20T11:58:33.162Z,9.50
2023-01-20T12:01:05.904Z,6.17
2023-01-20T12:03:50.894Z,7.07
2023-01-20T12:06:21.116Z,6.20
2023-01-20T12:08:55.527Z,6.17
2023-01-20T12:11:33.723Z,6.70
2023-01-20T12:14:24.890Z,5.93
2023-01-20T12:17:19.109Z,5.43
2023-01-20T12:20:05.198Z,6.10
2023-01-20T12:22:57.379Z,4.57
2023-01-20T12:25:29.510Z,8.43
2023-01-20T12:28:10.037Z,8.13
2023-01-20T12:30:56.968Z,7.57
2023-01-20T12:33:33.229Z,7.80
2023-01-20T12:36:11.639Z,7.63
2023-01-20T12:39:23.774Z,11.30
2023-01-20T12:42:18.204Z,8.10
2023-01-20T12:44:56.465Z,10.70
2023-01-20T12:47:47.818Z,7.83
2023-01-20T12:50:18.080Z,7.67
2023-01-20T12:52:57.116Z,8.70
2023-01-20T12:55:35.702Z,5.93
2023-01-20T12:58:29.668Z,7.43
2023-01-20T13:01:16.750Z,8.63
2023-01-20T13:03:56.183Z,7.00
2023-01-20T13:07:04.330Z,7.60
2023-01-20T13:10:03.443Z,8.00
2023-01-20T13:12:57.778Z,6.10
2023-01-20T13:15:28.950Z,5.70
2023-01-20T13:18:21.799Z,7.00
2023-01-20T13:20:48.957Z,7.27
2023-01-20T13:23:20.711Z,8.17
2023-01-20T13:25:47.568Z,8.27
2023-01-20T13:28:17.511Z,7.80
2023-01-20T13:30:51.267Z,8.93
2023-01-20T13:33:31.553Z,6.40
2023-01-20T13:36:21.277Z,9.30
2023-01-20T13:39:12.041Z,9.80
2023-01-20T13:41:52.593Z,10.00
2023-01-20T13:44:36.858Z,9.47
2023-01-20T13:47:07.976Z,6.93
2023-01-20T13:49:43.747Z,7.20
2023-01-20T13:52:11.854Z,8.30
2023-01-20T13:54:46.555Z,7.80
2023-01-20T13:57:20.238Z,8.90
2023-01-20T13:59:47.042Z,8.07
2023-01-20T14:02:28.472Z,5.33
2023-01-20T14:04:55.711Z,10.23
2023-01-20T14:07:30.963Z,10.33
2023-01-20T14:09:59.375Z,9.57
2023-01-20T14:12:26.856Z,10.37
2023-01-20T14:14:55.073Z,9.80
2023-01-20T14:17:24.200Z,9.37
2023-01-20T14:19:54.309Z,7.20
2023-01-20T14:22:30.170Z,9.90
2023-01-20T14:25:00.088Z,8.40
2023-01-20T14:27:35.278Z,8.50
2023-01-20T14:30:25.679Z,10.57
2023-01-20T14:32:53.503Z,10.00
2023-01-20T14:35:31.700Z,8.97
2023-01-20T14:37:59.156Z,8.87
2023-01-20T14:40:30.929Z,9.00
2023-01-20T14:43:18.133Z,8.87
2023-01-20T14:45:48.222Z,7.57
2023-01-20T14:48:32.395Z,8.10
2023-01-20T14:51:02.546Z,8.37
2023-01-20T14:53:29.414Z,9.53
2023-01-20T14:56:01.209Z,13.70
2023-01-20T14:58:31.276Z,9.53
2023-01-20T15:01:04.308Z,9.27
2023-01-20T15:03:31.672Z,9.60
2023-01-20T15:06:10.395Z,8.50
2023-01-20T15:08:37.354Z,11.17
2023-01-20T15:11:20.514Z,10.60
2023-01-20T15:13:53.297Z,8.77
2023-01-20T15:16:28.510Z,9.83
2023-01-20T15:19:13.606Z,10.23
2023-01-20T15:21:45.886Z,9.83
2023-01-20T15:24:20.373Z,10.43
2023-01-20T15:26:49.580Z,10.00
2023-01-20T15:29:20.651Z,10.43
2023-01-20T15:31:48.403Z,10.57
2023-01-20T15:34:15.164Z,12.30
2023-01-20T15:36:43.210Z,10.90
2023-01-20T15:39:12.064Z,10.23
2023-01-20T15:41:39.018Z,10.13
2023-01-20T15:44:06.029Z,8.30
2023-01-20T15:46:33.546Z,11.17
2023-01-20T15:49:00.614Z,9.87
2023-01-20T15:51:27.308Z,9.83
2023-01-20T15:53:53.933Z,9.60
2023-01-20T15:56:23.860Z,12.27
2023-01-20T15:58:51.122Z,10.00
2023-01-20T16:01:21.065Z,10.67
2023-01-20T16:03:47.948Z,12.87
2023-01-20T16:06:16.951Z,10.97
2023-01-20T16:08:46.311Z,11.20
2023-01-20T16:11:14.213Z,11.50
2023-01-20T16:13:41.531Z,12.53
2023-01-20T16:16:16.681Z,11.73
2023-01-20T16:18:44.015Z,11.07
2023-01-20T16:21:16.123Z,10.43
2023-01-20T16:23:43.822Z,12.10
2023-01-20T16:26:24.665Z,9.43
2023-01-20T16:28:54.027Z,8.63
2023-01-20T16:31:21.792Z,9.43
2023-01-20T16:33:48.683Z,11.83
2023-01-20T16:36:17.589Z,11.87
2023-01-20T16:38:45.326Z,17.00
2023-01-20T16:41:25.372Z,13.63
2023-01-20T16:43:54.104Z,7.73
2023-01-20T16:46:26.033Z,10.63
2023-01-20T16:48:54.538Z,9.80
2023-01-20T16:51:23.183Z,9.43
2023-01-20T16:53:49.867Z,10.70
2023-01-20T16:56:25.320Z,10.47
2023-01-20T16:58:53.693Z,9.87
2023-01-20T17:01:24.454Z,9.00
2023-01-20T17:03:53.245Z,11.80
2023-01-20T17:06:22.283Z,13.73
2023-01-20T17:08:51.461Z,10.87
2023-01-20T17:11:22.014Z,10.10
2023-01-20T17:13:48.940Z,7.43
2023-01-20T17:16:16.382Z,8.27
2023-01-20T17:18:45.635Z,8.40
2023-01-20T17:21:13.731Z,8.63
2023-01-20T17:23:41.030Z,9.23
2023-01-20T17:26:09.407Z,12.50
2023-01-20T17:28:36.084Z,10.20
2023-01-20T17:31:04.790Z,12.30
2023-01-20T17:33:31.619Z,8.43
2023-01-20T17:36:04.083Z,10.53
2023-01-20T17:38:33.275Z,8.13
2023-01-20T17:41:04.713Z,11.40
2023-01-20T17:43:43.264Z,9.83
2023-01-20T17:46:17.704Z,9.80
2023-01-20T17:48:45.325Z,9.93
2023-01-20T17:51:16.928Z,8.00
2023-01-20T17:53:44.289Z,9.70
2023-01-20T17:56:13.606Z,9.10
2023-01-20T17:58:42.150Z,8.33
2023-01-20T18:01:16.954Z,10.77
2023-01-20T18:03:44.445Z,7.50
2023-01-20T18:06:13.609Z,8.00
2023-01-20T18:08:40.979Z,8.07
2023-01-20T18:11:16.292Z,9.90
2023-01-20T18:13:45.339Z,9.97
2023-01-20T18:16:13.683Z,8.13
2023-01-20T18:18:43.257Z,8.87
2023-01-20T18:21:18.470Z,9.60
2023-01-20T18:23:46.273Z,8.63
2023-01-20T18:26:14.942Z,8.13
2023-01-20T18:28:42.611Z,8.03
2023-01-20T18:31:12.687Z,8.70
2023-01-20T18:33:44.463Z,8.97
2023-01-20T18:36:14.973Z,9.67
2023-01-20T18:38:45.236Z,9.77
2023-01-20T18:41:13.631Z,9.63
2023-01-20T18:43:41.019Z,9.87
2023-01-20T18:46:08.896Z,8.97
2023-01-20T18:48:40.599Z,9.33
2023-01-20T18:51:10.490Z,9.63
2023-01-20T18:53:37.616Z,8.20
2023-01-20T18:56:07.313Z,8.13
2023-01-20T18:58:35.328Z,9.60
2023-01-20T19:01:14.126Z,8.73
2023-01-20T19:03:41.161Z,9.70
2023-01-20T19:06:11.225Z,8.73
2023-01-20T19:08:39.052Z,10.87
2023-01-20T19:11:08.879Z,8.57
2023-01-20T19:13:36.126Z,9.13
2023-01-20T19:16:02.929Z,9.53
2023-01-20T19:18:29.682Z,11.80
2023-01-20T19:20:56.372Z,10.37
2023-01-20T19:23:23.038Z,10.60
2023-01-20T19:25:59.593Z,9.33
2023-01-20T19:28:26.240Z,9.53
2023-01-20T19:30:53.065Z,8.63
2023-01-20T19:33:19.744Z,7.73
2023-01-20T19:35:46.431Z,7.23
2023-01-20T19:38:13.423Z,7.47
2023-01-20T19:40:40.172Z,6.40
2023-01-20T19:43:06.797Z,7.30
2023-01-20T19:45:45.438Z,7.23
2023-01-20T19:48:12.855Z,8.40
2023-01-20T19:50:39.798Z,7.23
2023-01-20T19:53:06.470Z,6.47
2023-01-20T19:55:33.121Z,6.60
2023-01-20T19:57:59.755Z,8.17
2023-01-20T20:00:26.380Z,7.70
2023-01-20T20:02:54.413Z,8.20
2023-01-20T20:05:21.122Z,8.90
2023-01-20T20:07:47.768Z,9.47
2023-01-20T20:10:17.586Z,8.03
2023-01-20T20:12:44.356Z,6.87
2023-01-20T20:15:11.181Z,6.90
2023-01-20T20:17:38.013Z,7.03
2023-01-20T20:20:05.367Z,7.70
2023-01-20T20:22:32.081Z,6.57
2023-01-20T20:24:58.732Z,7.70
2023-01-20T20:27:25.470Z,7.30
2023-01-20T20:29:54.485Z,7.73
2023-01-20T20:32:21.097Z,7.33
2023-01-20T20:34:47.741Z,8.10
2023-01-20T20:37:14.407Z,7.87
2023-01-20T20:39:41.118Z,8.70
2023-01-20T20:42:07.805Z,8.27
2023-01-20T20:44:34.771Z,7.50
2023-01-20T20:47:01.612Z,8.00
2023-01-20T20:49:28.581Z,8.57
2023-01-20T20:51:55.230Z,10.27
2023-01-20T20:54:22.121Z,8.53
2023-01-20T20:56:48.761Z,8.60
2023-01-20T20:59:15.422Z,9.17
2023-01-20T21:01:42.112Z,8.53
2023-01-20T21:04:08.897Z,8.70
2023-01-20T21:06:35.597Z,8.90
2023-01-20T21:09:02.284Z,8.33
2023-01-20T21:11:29.284Z,8.30
2023-01-20T21:13:56.327Z,9.73
2023-01-20T21:16:24.854Z,9.57
2023-01-20T21:18:53.639Z,10.90
2023-01-20T21:21:20.951Z,10.27
2023-01-20T21:23:55.781Z,10.50
2023-01-20T21:26:24.654Z,9.10
2023-01-20T21:28:51.577Z,9.17
2023-01-20T21:31:21.373Z,10.10
2023-01-20T21:33:53.540Z,9.50
2023-01-20T21:36:21.402Z,8.47
2023-01-20T21:38:48.334Z,9.57
2023-01-20T21:41:16.382Z,8.63
2023-01-20T21:44:04.246Z,8.93
2023-01-20T21:46:35.875Z,8.13
2023-01-20T21:49:23.097Z,8.47
2023-01-20T21:52:08.536Z,7.73
2023-01-20T21:54:35.302Z,7.87
2023-01-20T21:57:02.308Z,8.07
2023-01-20T21:59:28.970Z,8.00
2023-01-20T22:01:55.656Z,8.53
2023-01-20T22:04:22.310Z,9.00
2023-01-20T22:06:49.188Z,9.97
2023-01-20T22:09:15.798Z,10.57
2023-01-20T22:11:42.509Z,13.77
2023-01-20T22:14:10.038Z,14.80
2023-01-20T22:16:36.739Z,11.83
2023-01-20T22:19:03.424Z,10.10
2023-01-20T22:21:30.071Z,12.17
2023-01-20T22:23:56.754Z,11.67
2023-01-20T22:26:23.447Z,9.17
2023-01-20T22:28:50.197Z,8.80
2023-01-20T22:31:21.703Z,9.03
2023-01-20T22:33:56.013Z,8.63
2023-01-20T22:36:23.691Z,10.10
2023-01-20T22:38:51.742Z,11.30
2023-01-20T22:41:19.241Z,9.83
2023-01-20T22:43:47.959Z,9.27
2023-01-20T22:46:16.345Z,10.03
2023-01-20T22:48:43.444Z,9.23
2023-01-20T22:51:15.664Z,9.77
2023-01-20T22:53:43.380Z,10.73
2023-01-20T22:56:13.701Z,9.17
2023-01-20T22:58:40.788Z,7.93
2023-01-20T23:01:19.261Z,6.67
2023-01-20T23:03:47.011Z,7.30
2023-01-20T23:06:14.485Z,6.70
2023-01-20T23:08:41.647Z,7.47
2023-01-20T23:11:11.452Z,6.90
2023-01-20T23:13:41.275Z,7.40
2023-01-20T23:16:12.674Z,6.53
2023-01-20T23:18:39.327Z,6.97
2023-01-20T23:21:06.397Z,5.97
2023-01-20T23:23:33.173Z,6.27
2023-01-20T23:26:05.165Z,8.03
2023-01-20T23:28:32.476Z,6.93
2023-01-20T23:31:01.474Z,7.23
2023-01-20T23:33:28.359Z,6.13
2023-01-20T23:35:55.068Z,8.80
2023-01-20T23:38:21.750Z,8.23
2023-01-20T23:40:49.241Z,8.23
2023-01-20T23:43:15.910Z,7.07
2023-01-20T23:45:42.697Z,8.70
2023-01-20T23:48:09.364Z,8.23
2023-01-20T23:50:36.035Z,8.07
2023-01-20T23:53:02.696Z,7.57
2023-01-20T23:55:29.371Z,5.73
2023-01-20T23:57:56.329Z,6.10
